Flight Track Log - Related Links

Times and Time Zones

All times are in EDT time to prevent confusion due to time zone crossing. See the UAL4115 flight status page for this flight to view local times or setup timezone preferences in your user account.

Time Position Orientation Groundspeed Altitude Reporting Facility
EDT Latitude Longitude Course Direction KTS MPH feet Rate Location/Type
Wed 08:46:15 PM 32.1397 -81.1333 North 226 260 3,300  Level Jacksonville Center
Wed 08:47:15 PM 32.2022 -81.1297 North 240 276 6,100 2,750 Climbing Jacksonville Center
Wed 08:48:15 PM 32.2736 -81.1481 348° North 245 282 8,800 2,300 Climbing Jacksonville Center
Wed 08:49:00 PM 32.6408 -81.1500 North  Level FlightAware Approximate
Wed 08:49:15 PM 32.3594 -81.1686 349° North 280 322 10,700  Level Jacksonville Center
Wed 08:50:00 PM 32.7469 -81.1442 North  Level FlightAware Approximate
Wed 08:50:15 PM 32.4450 -81.1742 357° North 331 381 12,300  Level Jacksonville Center
Wed 08:51:00 PM 32.8526 -81.1310 North  Level FlightAware Approximate
Wed 08:51:15 PM 32.5556 -81.1672 North 353 406 14,700  Level Jacksonville Center
Wed 08:52:15 PM 32.6558 -81.1603 North 363 418 16,600 1,700 Climbing Jacksonville Center
Wed 08:53:15 PM 32.7494 -81.1511 North 369 425 18,100 1,600 Climbing Jacksonville Center
Wed 08:54:15 PM 32.8558 -81.1417 North 369 425 19,800 1,650 Climbing Jacksonville Center
Wed 08:55:15 PM 32.9683 -81.1322 North 384 442 21,400 1,700 Climbing Jacksonville Center
Wed 08:56:15 PM 33.0811 -81.1225 North 396 456 23,200 1,750 Climbing Jacksonville Center
Wed 08:57:15 PM 33.1914 -81.1128 North 396 456 24,900 900 Climbing Jacksonville Center
Wed 08:58:15 PM 33.3103 -81.1031 North 407 468 25,000 50 Climbing Jacksonville Center
Wed 08:59:15 PM 33.4333 -81.0931 North 425 489 25,000  Level Jacksonville Center
Wed 09:00:15 PM 33.5606 -81.0831 North 441 507 25,000  Level Jacksonville Center
Wed 09:01:15 PM 33.6897 -81.0728 North 453 521 25,000  Level Jacksonville Center
Wed 09:02:15 PM 33.8336 -81.0600 North 460 529 25,000 550 Level Jacksonville Center
Wed 09:03:15 PM 33.9628 -81.0522 North 460 529 26,100 1,488 Climbing Jacksonville Center
Wed 09:04:16 PM 34.0669 -81.0425 North 453 521 28,000 1,800 Climbing Jacksonville Center
Wed 09:05:15 PM 34.1789 -80.9925 20° North 438 504 29,700 1,815 Climbing Jacksonville Center
Wed 09:06:15 PM 34.2586 -80.8828 49° Northeast 414 476 31,600 1,900 Climbing Jacksonville Center
Wed 09:07:15 PM 34.3442 -80.7600 50° Northeast 414 476 33,500 1,600 Climbing Jacksonville Center
Wed 09:08:15 PM 34.4256 -80.6497 48° Northeast 448 516 34,800 459 Climbing Jacksonville Center
Wed 09:10:31 PM 34.6208 -80.3694 50° Northeast 484 557 35,000 61 Climbing Washington Center
Wed 09:11:31 PM 34.7114 -80.2433 49° Northeast 495 570 35,000  Level Washington Center
Wed 09:12:31 PM 34.8042 -80.1119 49° Northeast 500 575 35,000  Level Washington Center
Wed 09:13:31 PM 34.9022 -79.9958 44° Northeast 500 575 35,000  Level Washington Center
Wed 09:14:31 PM 35.0142 -79.9081 33° Northeast 487 560 35,000  Level Washington Center
Wed 09:15:31 PM 35.1258 -79.8178 33° Northeast 482 555 35,000  Level Washington Center
Wed 09:16:31 PM 35.2375 -79.7294 33° Northeast 476 548 35,000  Level Washington Center
Wed 09:17:31 PM 35.3489 -79.6411 33° Northeast 476 548 35,000  Level Washington Center
Wed 09:18:31 PM 35.4625 -79.5497 33° Northeast 476 548 35,000  Level Washington Center
Wed 09:19:31 PM 35.5892 -79.4461 34° Northeast 476 548 35,000  Level Washington Center
Wed 09:20:31 PM 35.6875 -79.3692 32° Northeast 476 548 35,000  Level Washington Center
Wed 09:21:31 PM 35.8011 -79.2747 34° Northeast 476 548 35,000  Level Washington Center
Wed 09:22:31 PM 35.9250 -79.1778 32° Northeast 476 548 35,000  Level Washington Center
Wed 09:23:31 PM 36.0383 -79.0828 34° Northeast 476 548 35,000  Level Washington Center
Wed 09:24:31 PM 36.1517 -78.9928 33° Northeast 476 548 35,000  Level Washington Center
Wed 09:25:31 PM 36.2647 -78.8997 34° Northeast 476 548 35,000  Level Washington Center
Wed 09:26:31 PM 36.3758 -78.8064 34° Northeast 476 548 35,000  Level Washington Center
Wed 09:27:31 PM 36.4867 -78.7128 34° Northeast 476 548 35,000  Level Washington Center
Wed 09:29:31 PM 36.7000 -78.5297 35° Northeast 476 548 35,000  Level Washington Center
Wed 09:30:31 PM 36.8256 -78.4281 33° Northeast 482 555 35,000  Level Washington Center
Wed 09:31:31 PM 36.9364 -78.3333 34° Northeast 482 555 35,000  Level Washington Center
Wed 09:32:31 PM 37.0511 -78.2358 34° Northeast 488 562 35,000  Level Washington Center
Wed 09:33:31 PM 37.1639 -78.1408 34° Northeast 488 562 35,000  Level Washington Center
Wed 09:34:31 PM 37.2764 -78.0428 35° Northeast 488 562 35,000  Level Washington Center
Wed 09:35:31 PM 37.3908 -77.9469 34° Northeast 493 567 35,000  Level Washington Center
Wed 09:36:31 PM 37.5033 -77.8483 35° Northeast 499 574 35,000  Level Washington Center
Wed 09:37:31 PM 37.6178 -77.7494 34° Northeast 499 574 35,000  Level Washington Center
Wed 09:38:31 PM 37.7303 -77.6478 36° Northeast 499 574 35,000  Level Washington Center
Wed 09:39:31 PM 37.8425 -77.5431 36° Northeast 499 574 35,000  Level Washington Center
Wed 09:40:32 PM 37.9567 -77.4406 35° Northeast 499 574 35,000  Level Washington Center
Wed 09:41:31 PM 38.0539 -77.3533 35° Northeast 499 574 35,000  Level Washington Center
Wed 09:42:31 PM 38.1661 -77.2475 37° Northeast 492 566 35,000  Level Washington Center
Wed 09:43:31 PM 38.2928 -77.1286 36° Northeast 503 579 35,000  Level Washington Center
Wed 09:44:31 PM 38.3917 -77.0381 36° Northeast 503 579 35,000  Level Washington Center
Wed 09:45:31 PM 38.5183 -76.9211 36° Northeast 503 579 35,000  Level Washington Center
Wed 09:46:31 PM 38.6300 -76.8142 37° Northeast 503 579 35,000  Level Washington Center
Wed 09:47:32 PM 38.7394 -76.7067 37° Northeast 503 579 35,000  Level Washington Center
Wed 09:48:31 PM 38.8447 -76.5858 42° Northeast 503 579 35,000 -202 Level Washington Center
Wed 09:49:31 PM 38.9519 -76.4617 42° Northeast 508 585 34,600 -1,600 Descending Washington Center
Wed 09:50:31 PM 39.0528 -76.3428 42° Northeast 502 578 31,800 -2,800 Descending Washington Center
Wed 09:51:31 PM 39.1492 -76.2286 43° Northeast 483 556 29,000 -2,400 Descending Washington Center
Wed 09:52:31 PM 39.2456 -76.1194 41° Northeast 469 540 27,000 -1,000 Descending Washington Center
Wed 09:53:31 PM 39.3336 -76.0183 42° Northeast 444 511 27,000 -50 Level Washington Center
Wed 09:54:32 PM 39.4256 -75.9086 43° Northeast 439 505 26,900 -700 Descending Washington Center
Wed 09:55:31 PM 39.5197 -75.7986 42° Northeast 439 505 25,600 -1,311 Descending Washington Center
Wed 09:56:31 PM 39.6053 -75.6967 43° Northeast 439 505 24,300 -1,650 Descending Washington Center
Wed 09:57:31 PM 39.6947 -75.5889 43° Northeast 434 499 22,300 -2,150 Descending Washington Center
Wed 09:58:31 PM 39.7781 -75.4917 42° Northeast 427 491 20,000 -2,200 Descending Washington Center
Wed 09:59:31 PM 39.8550 -75.3969 43° Northeast 398 458 17,900 -2,050 Descending Washington Center
Wed 10:00:31 PM 39.9342 -75.3047 42° Northeast 388 447 15,900 -2,033 Descending Washington Center
Wed 10:01:32 PM 40.0150 -75.2042 44° Northeast 383 441 13,800 -2,033 Descending Washington Center
Wed 10:02:32 PM 40.0958 -75.1033 44° Northeast 388 447 11,800 -1,563 Descending Washington Center
Wed 10:03:31 PM 40.1706 -75.0131 43° Northeast 393 452 10,700 -1,385 Descending Washington Center
Wed 10:04:16 PM 40.2167 -74.9500 46° Northeast 324 373 9,400 -1,164 Descending New York TRACON
Wed 10:06:16 PM 40.3333 -74.8000 44° Northeast 280 322 7,500 -1,100 Descending New York TRACON
Wed 10:07:16 PM 40.3667 -74.7000 66° East 277 319 6,100 -700 Descending New York TRACON
Wed 10:08:16 PM 40.3833 -74.6167 75° East 271 312 6,100  Level New York TRACON
Wed 10:10:16 PM 40.4833 -74.5500 27° Northeast 235 270 6,100  Level New York TRACON
Wed 10:11:16 PM 40.5500 -74.5667 349° North 241 277 6,100  Level New York TRACON
Wed 10:12:16 PM 40.6167 -74.5667 360° North 239 275 6,100  Level New York TRACON
Wed 10:13:16 PM 40.6833 -74.5667 360° North 245 282 6,100  Level New York TRACON
Wed 10:14:16 PM 40.7500 -74.5333 21° North 248 285 6,100  Level New York TRACON
Wed 10:15:16 PM 40.8167 -74.5167 11° North 246 283 6,100 -298 Level New York TRACON
Wed 10:17:17 PM 40.9500 -74.4667 16° North 251 289 5,200 -473 Descending New York TRACON
Wed 10:19:17 PM 40.9833 -74.2667 77° East 261 300 4,200 -367 Descending New York TRACON
Wed 10:20:17 PM 40.9667 -74.2000 108° East 235 270 4,100 -50 Descending New York TRACON
Wed 10:21:17 PM 40.9500 -74.1167 105° East 227 261 4,100 -300 Level New York TRACON
Wed 10:23:00 PM 40.7556 -74.1486 191° South  Level FlightAware Approximate
Wed 10:24:17 PM 40.8333 -74.0833 191° South 155 178 2,900  Level New York TRACON
Wed 10:27:17 PM 40.7333 -74.1500 207° Southwest 102 117 700 -733 Descending New York TRACON

Login

Don't have an account? Register now (free) for customized features, flight alerts, and more!